sensor_id;sensor_type;location;lat;lon;timestamp;P1;durP1;ratioP1;P2;durP2;ratioP2
49396;SDS011;35615;41.410;2.194;2023-03-01T00:02:26;6.45;;;3.03;;
49396;SDS011;35615;41.410;2.194;2023-03-01T00:04:59;3.80;;;3.40;;
49396;SDS011;35615;41.410;2.194;2023-03-01T00:07:27;4.50;;;3.10;;
49396;SDS011;35615;41.410;2.194;2023-03-01T00:09:54;5.10;;;3.00;;
49396;SDS011;35615;41.410;2.194;2023-03-01T00:12:24;5.28;;;3.28;;
49396;SDS011;35615;41.410;2.194;2023-03-01T00:14:54;4.18;;;3.55;;
49396;SDS011;35615;41.410;2.194;2023-03-01T00:17:25;5.43;;;3.97;;
49396;SDS011;35615;41.410;2.194;2023-03-01T00:19:54;5.15;;;3.25;;
49396;SDS011;35615;41.410;2.194;2023-03-01T00:22:26;8.13;;;3.28;;
49396;SDS011;35615;41.410;2.194;2023-03-01T00:24:56;6.18;;;3.22;;
49396;SDS011;35615;41.410;2.194;2023-03-01T00:27:24;4.78;;;3.53;;
49396;SDS011;35615;41.410;2.194;2023-03-01T00:30:03;10.68;;;3.38;;
49396;SDS011;35615;41.410;2.194;2023-03-01T00:32:36;6.93;;;3.38;;
49396;SDS011;35615;41.410;2.194;2023-03-01T00:35:08;7.00;;;3.65;;
49396;SDS011;35615;41.410;2.194;2023-03-01T00:37:36;5.15;;;2.90;;
49396;SDS011;35615;41.410;2.194;2023-03-01T00:40:07;15.50;;;3.28;;
49396;SDS011;35615;41.410;2.194;2023-03-01T00:42:35;7.10;;;3.63;;
49396;SDS011;35615;41.410;2.194;2023-03-01T00:45:05;6.05;;;2.88;;
49396;SDS011;35615;41.410;2.194;2023-03-01T00:47:34;6.22;;;3.28;;
49396;SDS011;35615;41.410;2.194;2023-03-01T00:50:04;5.90;;;3.25;;
49396;SDS011;35615;41.410;2.194;2023-03-01T00:52:35;12.27;;;4.03;;
49396;SDS011;35615;41.410;2.194;2023-03-01T00:55:04;5.43;;;3.20;;
49396;SDS011;35615;41.410;2.194;2023-03-01T00:57:35;7.50;;;2.63;;
49396;SDS011;35615;41.410;2.194;2023-03-01T01:00:10;8.25;;;2.50;;
49396;SDS011;35615;41.410;2.194;2023-03-01T01:02:41;8.73;;;3.10;;
49396;SDS011;35615;41.410;2.194;2023-03-01T01:05:08;10.07;;;3.17;;
49396;SDS011;35615;41.410;2.194;2023-03-01T01:07:46;8.43;;;3.05;;
49396;SDS011;35615;41.410;2.194;2023-03-01T01:10:29;6.05;;;3.63;;
49396;SDS011;35615;41.410;2.194;2023-03-01T01:13:05;4.47;;;2.78;;
49396;SDS011;35615;41.410;2.194;2023-03-01T01:15:35;4.55;;;2.90;;
49396;SDS011;35615;41.410;2.194;2023-03-01T01:18:08;7.30;;;3.30;;
49396;SDS011;35615;41.410;2.194;2023-03-01T01:20:44;5.10;;;2.78;;
49396;SDS011;35615;41.410;2.194;2023-03-01T01:23:28;5.53;;;3.38;;
49396;SDS011;35615;41.410;2.194;2023-03-01T01:26:33;8.48;;;2.92;;
49396;SDS011;35615;41.410;2.194;2023-03-01T01:28:57;5.38;;;2.63;;
49396;SDS011;35615;41.410;2.194;2023-03-01T01:31:26;7.15;;;3.08;;
49396;SDS011;35615;41.410;2.194;2023-03-01T01:33:57;7.10;;;3.05;;
49396;SDS011;35615;41.410;2.194;2023-03-01T01:36:25;7.05;;;2.83;;
49396;SDS011;35615;41.410;2.194;2023-03-01T01:38:55;9.93;;;3.13;;
49396;SDS011;35615;41.410;2.194;2023-03-01T01:41:23;5.32;;;3.30;;
49396;SDS011;35615;41.410;2.194;2023-03-01T01:46:50;6.68;;;3.25;;
49396;SDS011;35615;41.410;2.194;2023-03-01T01:55:05;6.35;;;3.00;;
49396;SDS011;35615;41.410;2.194;2023-03-01T01:57:37;4.10;;;2.90;;
49396;SDS011;35615;41.410;2.194;2023-03-01T02:00:13;4.70;;;3.13;;
49396;SDS011;35615;41.410;2.194;2023-03-01T02:02:44;11.15;;;3.40;;
49396;SDS011;35615;41.410;2.194;2023-03-01T02:05:34;4.28;;;2.53;;
49396;SDS011;35615;41.410;2.194;2023-03-01T02:08:11;6.03;;;2.47;;
49396;SDS011;35615;41.410;2.194;2023-03-01T02:10:42;4.93;;;2.70;;
49396;SDS011;35615;41.410;2.194;2023-03-01T02:13:11;6.00;;;3.20;;
49396;SDS011;35615;41.410;2.194;2023-03-01T02:15:39;5.63;;;2.47;;
49396;SDS011;35615;41.410;2.194;2023-03-01T02:18:15;5.82;;;3.15;;
49396;SDS011;35615;41.410;2.194;2023-03-01T02:23:32;5.03;;;2.90;;
49396;SDS011;35615;41.410;2.194;2023-03-01T02:26:02;3.92;;;2.55;;
49396;SDS011;35615;41.410;2.194;2023-03-01T02:28:46;8.70;;;3.03;;
49396;SDS011;35615;41.410;2.194;2023-03-01T02:31:18;3.60;;;2.65;;
49396;SDS011;35615;41.410;2.194;2023-03-01T02:34:14;6.35;;;2.85;;
49396;SDS011;35615;41.410;2.194;2023-03-01T02:36:45;6.60;;;2.58;;
49396;SDS011;35615;41.410;2.194;2023-03-01T02:39:17;9.85;;;2.97;;
49396;SDS011;35615;41.410;2.194;2023-03-01T02:41:56;3.63;;;2.72;;
49396;SDS011;35615;41.410;2.194;2023-03-01T02:44:25;4.20;;;2.50;;
49396;SDS011;35615;41.410;2.194;2023-03-01T02:46:56;6.35;;;2.65;;
49396;SDS011;35615;41.410;2.194;2023-03-01T02:49:32;5.18;;;2.70;;
49396;SDS011;35615;41.410;2.194;2023-03-01T02:55:13;3.90;;;2.80;;
49396;SDS011;35615;41.410;2.194;2023-03-01T02:57:47;11.02;;;3.15;;
49396;SDS011;35615;41.410;2.194;2023-03-01T03:00:20;3.15;;;2.25;;
49396;SDS011;35615;41.410;2.194;2023-03-01T03:02:55;5.03;;;3.05;;
49396;SDS011;35615;41.410;2.194;2023-03-01T03:05:26;3.90;;;2.80;;
49396;SDS011;35615;41.410;2.194;2023-03-01T03:07:57;3.88;;;2.28;;
49396;SDS011;35615;41.410;2.194;2023-03-01T03:10:34;10.73;;;4.00;;
49396;SDS011;35615;41.410;2.194;2023-03-01T03:13:10;6.25;;;3.15;;
49396;SDS011;35615;41.410;2.194;2023-03-01T03:15:42;7.45;;;2.65;;
49396;SDS011;35615;41.410;2.194;2023-03-01T03:18:15;4.35;;;2.63;;
49396;SDS011;35615;41.410;2.194;2023-03-01T03:20:51;6.70;;;2.83;;
49396;SDS011;35615;41.410;2.194;2023-03-01T03:23:26;9.55;;;3.08;;
49396;SDS011;35615;41.410;2.194;2023-03-01T03:25:56;5.85;;;2.60;;
49396;SDS011;35615;41.410;2.194;2023-03-01T03:28:27;6.32;;;2.70;;
49396;SDS011;35615;41.410;2.194;2023-03-01T03:30:54;5.55;;;2.75;;
49396;SDS011;35615;41.410;2.194;2023-03-01T03:33:22;5.53;;;3.30;;
49396;SDS011;35615;41.410;2.194;2023-03-01T03:35:49;5.95;;;2.90;;
49396;SDS011;35615;41.410;2.194;2023-03-01T03:38:20;5.63;;;2.83;;
49396;SDS011;35615;41.410;2.194;2023-03-01T03:41:02;3.45;;;2.55;;
49396;SDS011;35615;41.410;2.194;2023-03-01T03:43:36;9.05;;;2.92;;
49396;SDS011;35615;41.410;2.194;2023-03-01T03:46:11;3.65;;;3.00;;
49396;SDS011;35615;41.410;2.194;2023-03-01T03:48:45;5.70;;;2.50;;
49396;SDS011;35615;41.410;2.194;2023-03-01T03:56:32;8.30;;;2.60;;
49396;SDS011;35615;41.410;2.194;2023-03-01T03:59:01;9.80;;;3.22;;
49396;SDS011;35615;41.410;2.194;2023-03-01T04:01:42;7.97;;;3.45;;
49396;SDS011;35615;41.410;2.194;2023-03-01T04:04:11;9.80;;;2.95;;
49396;SDS011;35615;41.410;2.194;2023-03-01T04:06:45;4.20;;;2.80;;
49396;SDS011;35615;41.410;2.194;2023-03-01T04:09:12;5.50;;;3.70;;
49396;SDS011;35615;41.410;2.194;2023-03-01T04:11:41;7.25;;;2.80;;
49396;SDS011;35615;41.410;2.194;2023-03-01T04:14:11;7.40;;;2.92;;
49396;SDS011;35615;41.410;2.194;2023-03-01T04:16:44;3.70;;;2.75;;
49396;SDS011;35615;41.410;2.194;2023-03-01T04:19:17;7.45;;;2.85;;
49396;SDS011;35615;41.410;2.194;2023-03-01T04:21:44;6.00;;;3.10;;
49396;SDS011;35615;41.410;2.194;2023-03-01T04:24:21;9.70;;;3.10;;
49396;SDS011;35615;41.410;2.194;2023-03-01T04:26:57;3.53;;;2.97;;
49396;SDS011;35615;41.410;2.194;2023-03-01T04:29:33;6.25;;;3.05;;
49396;SDS011;35615;41.410;2.194;2023-03-01T04:32:07;4.95;;;3.10;;
49396;SDS011;35615;41.410;2.194;2023-03-01T04:34:49;8.98;;;2.92;;
49396;SDS011;35615;41.410;2.194;2023-03-01T04:37:24;8.38;;;3.30;;
49396;SDS011;35615;41.410;2.194;2023-03-01T04:39:52;9.18;;;3.03;;
49396;SDS011;35615;41.410;2.194;2023-03-01T04:42:20;8.27;;;2.78;;
49396;SDS011;35615;41.410;2.194;2023-03-01T04:44:49;7.53;;;3.00;;
49396;SDS011;35615;41.410;2.194;2023-03-01T04:47:22;7.55;;;2.90;;
49396;SDS011;35615;41.410;2.194;2023-03-01T04:49:52;4.22;;;3.30;;
49396;SDS011;35615;41.410;2.194;2023-03-01T04:52:21;6.80;;;3.08;;
49396;SDS011;35615;41.410;2.194;2023-03-01T04:54:57;3.97;;;2.92;;
49396;SDS011;35615;41.410;2.194;2023-03-01T04:57:31;5.35;;;3.10;;
49396;SDS011;35615;41.410;2.194;2023-03-01T04:59:59;4.10;;;2.80;;
49396;SDS011;35615;41.410;2.194;2023-03-01T05:05:31;5.10;;;3.20;;
49396;SDS011;35615;41.410;2.194;2023-03-01T05:08:04;3.80;;;2.72;;
49396;SDS011;35615;41.410;2.194;2023-03-01T05:10:35;8.52;;;3.17;;
49396;SDS011;35615;41.410;2.194;2023-03-01T05:13:08;5.10;;;3.13;;
49396;SDS011;35615;41.410;2.194;2023-03-01T05:15:39;4.80;;;2.78;;
49396;SDS011;35615;41.410;2.194;2023-03-01T05:18:09;3.55;;;2.88;;
49396;SDS011;35615;41.410;2.194;2023-03-01T05:20:42;5.47;;;3.22;;
49396;SDS011;35615;41.410;2.194;2023-03-01T05:23:14;8.95;;;3.55;;
49396;SDS011;35615;41.410;2.194;2023-03-01T05:25:47;7.37;;;3.47;;
49396;SDS011;35615;41.410;2.194;2023-03-01T05:28:19;3.55;;;3.22;;
49396;SDS011;35615;41.410;2.194;2023-03-01T05:30:49;3.90;;;2.88;;
49396;SDS011;35615;41.410;2.194;2023-03-01T05:33:18;5.78;;;3.08;;
49396;SDS011;35615;41.410;2.194;2023-03-01T05:35:49;4.32;;;2.70;;
49396;SDS011;35615;41.410;2.194;2023-03-01T05:38:23;9.15;;;3.72;;
49396;SDS011;35615;41.410;2.194;2023-03-01T05:40:53;7.10;;;3.95;;
49396;SDS011;35615;41.410;2.194;2023-03-01T05:43:23;13.43;;;3.83;;
49396;SDS011;35615;41.410;2.194;2023-03-01T05:45:53;9.38;;;3.30;;
49396;SDS011;35615;41.410;2.194;2023-03-01T05:48:24;4.90;;;2.97;;
49396;SDS011;35615;41.410;2.194;2023-03-01T05:50:55;6.30;;;3.50;;
49396;SDS011;35615;41.410;2.194;2023-03-01T05:53:33;6.97;;;3.67;;
49396;SDS011;35615;41.410;2.194;2023-03-01T05:56:14;4.30;;;3.42;;
49396;SDS011;35615;41.410;2.194;2023-03-01T05:58:42;6.03;;;3.75;;
49396;SDS011;35615;41.410;2.194;2023-03-01T06:01:12;8.05;;;3.03;;
49396;SDS011;35615;41.410;2.194;2023-03-01T06:03:41;3.40;;;3.10;;
49396;SDS011;35615;41.410;2.194;2023-03-01T06:06:11;4.75;;;3.13;;
49396;SDS011;35615;41.410;2.194;2023-03-01T06:08:44;7.28;;;3.17;;
49396;SDS011;35615;41.410;2.194;2023-03-01T06:11:11;9.32;;;4.53;;
49396;SDS011;35615;41.410;2.194;2023-03-01T06:13:47;7.93;;;3.88;;
49396;SDS011;35615;41.410;2.194;2023-03-01T06:16:20;7.40;;;3.83;;
49396;SDS011;35615;41.410;2.194;2023-03-01T06:18:48;4.50;;;3.42;;
49396;SDS011;35615;41.410;2.194;2023-03-01T06:21:15;7.32;;;3.83;;
49396;SDS011;35615;41.410;2.194;2023-03-01T06:23:46;6.50;;;3.65;;
49396;SDS011;35615;41.410;2.194;2023-03-01T06:26:17;8.15;;;3.55;;
49396;SDS011;35615;41.410;2.194;2023-03-01T06:28:47;5.95;;;3.85;;
49396;SDS011;35615;41.410;2.194;2023-03-01T06:31:15;6.15;;;3.78;;
49396;SDS011;35615;41.410;2.194;2023-03-01T06:33:56;9.43;;;3.90;;
49396;SDS011;35615;41.410;2.194;2023-03-01T06:36:27;3.55;;;3.03;;
49396;SDS011;35615;41.410;2.194;2023-03-01T06:39:00;6.75;;;3.75;;
49396;SDS011;35615;41.410;2.194;2023-03-01T06:41:36;7.75;;;3.80;;
49396;SDS011;35615;41.410;2.194;2023-03-01T06:47:00;7.18;;;3.47;;
49396;SDS011;35615;41.410;2.194;2023-03-01T06:49:54;4.53;;;3.22;;
49396;SDS011;35615;41.410;2.194;2023-03-01T06:55:00;7.57;;;3.65;;
49396;SDS011;35615;41.410;2.194;2023-03-01T06:57:35;7.93;;;3.50;;
49396;SDS011;35615;41.410;2.194;2023-03-01T07:00:14;7.85;;;4.30;;
49396;SDS011;35615;41.410;2.194;2023-03-01T07:02:46;6.03;;;3.80;;
49396;SDS011;35615;41.410;2.194;2023-03-01T07:05:19;10.10;;;4.50;;
49396;SDS011;35615;41.410;2.194;2023-03-01T07:07:59;11.07;;;4.95;;
49396;SDS011;35615;41.410;2.194;2023-03-01T07:10:30;5.97;;;3.67;;
49396;SDS011;35615;41.410;2.194;2023-03-01T07:13:03;10.65;;;4.50;;
49396;SDS011;35615;41.410;2.194;2023-03-01T07:15:33;6.30;;;3.58;;
49396;SDS011;35615;41.410;2.194;2023-03-01T07:18:06;4.55;;;3.53;;
49396;SDS011;35615;41.410;2.194;2023-03-01T07:20:44;9.98;;;4.15;;
49396;SDS011;35615;41.410;2.194;2023-03-01T07:23:17;11.30;;;4.47;;
49396;SDS011;35615;41.410;2.194;2023-03-01T07:25:55;9.43;;;4.22;;
49396;SDS011;35615;41.410;2.194;2023-03-01T07:28:37;11.20;;;3.95;;
49396;SDS011;35615;41.410;2.194;2023-03-01T07:31:22;7.72;;;4.35;;
49396;SDS011;35615;41.410;2.194;2023-03-01T07:33:55;19.67;;;4.57;;
49396;SDS011;35615;41.410;2.194;2023-03-01T07:36:34;9.37;;;4.60;;
49396;SDS011;35615;41.410;2.194;2023-03-01T07:39:37;6.90;;;3.60;;
49396;SDS011;35615;41.410;2.194;2023-03-01T07:42:08;7.93;;;4.53;;
49396;SDS011;35615;41.410;2.194;2023-03-01T07:44:38;12.43;;;4.72;;
49396;SDS011;35615;41.410;2.194;2023-03-01T07:47:10;16.92;;;5.18;;
49396;SDS011;35615;41.410;2.194;2023-03-01T07:49:43;11.70;;;4.47;;
49396;SDS011;35615;41.410;2.194;2023-03-01T07:52:31;8.43;;;4.70;;
49396;SDS011;35615;41.410;2.194;2023-03-01T07:58:07;11.27;;;3.95;;
49396;SDS011;35615;41.410;2.194;2023-03-01T08:00:43;11.27;;;4.10;;
49396;SDS011;35615;41.410;2.194;2023-03-01T08:03:14;6.53;;;4.15;;
49396;SDS011;35615;41.410;2.194;2023-03-01T08:05:46;18.77;;;5.47;;
49396;SDS011;35615;41.410;2.194;2023-03-01T08:08:21;8.55;;;4.32;;
49396;SDS011;35615;41.410;2.194;2023-03-01T08:10:56;5.63;;;4.45;;
49396;SDS011;35615;41.410;2.194;2023-03-01T08:13:33;15.55;;;4.88;;
49396;SDS011;35615;41.410;2.194;2023-03-01T08:16:18;8.18;;;4.40;;
49396;SDS011;35615;41.410;2.194;2023-03-01T08:18:52;9.82;;;4.78;;
49396;SDS011;35615;41.410;2.194;2023-03-01T08:21:26;14.25;;;5.03;;
49396;SDS011;35615;41.410;2.194;2023-03-01T08:23:53;11.07;;;4.85;;
49396;SDS011;35615;41.410;2.194;2023-03-01T08:26:21;19.20;;;4.70;;
49396;SDS011;35615;41.410;2.194;2023-03-01T08:28:49;10.35;;;4.45;;
49396;SDS011;35615;41.410;2.194;2023-03-01T08:31:26;6.50;;;4.35;;
49396;SDS011;35615;41.410;2.194;2023-03-01T08:33:57;8.43;;;4.75;;
49396;SDS011;35615;41.410;2.194;2023-03-01T08:36:32;11.85;;;4.70;;
49396;SDS011;35615;41.410;2.194;2023-03-01T08:39:07;6.60;;;4.50;;
49396;SDS011;35615;41.410;2.194;2023-03-01T08:41:38;9.57;;;4.57;;
49396;SDS011;35615;41.410;2.194;2023-03-01T08:44:16;10.40;;;4.18;;
49396;SDS011;35615;41.410;2.194;2023-03-01T08:46:46;9.80;;;4.47;;
49396;SDS011;35615;41.410;2.194;2023-03-01T08:49:19;8.70;;;4.90;;
49396;SDS011;35615;41.410;2.194;2023-03-01T08:51:57;5.20;;;4.40;;
49396;SDS011;35615;41.410;2.194;2023-03-01T08:54:26;8.98;;;4.85;;
49396;SDS011;35615;41.410;2.194;2023-03-01T08:57:02;10.82;;;5.13;;
49396;SDS011;35615;41.410;2.194;2023-03-01T08:59:30;11.70;;;4.45;;
49396;SDS011;35615;41.410;2.194;2023-03-01T09:02:03;11.13;;;4.70;;
49396;SDS011;35615;41.410;2.194;2023-03-01T09:04:39;11.80;;;4.53;;
49396;SDS011;35615;41.410;2.194;2023-03-01T09:07:07;11.18;;;5.28;;
49396;SDS011;35615;41.410;2.194;2023-03-01T09:09:36;9.40;;;5.30;;
49396;SDS011;35615;41.410;2.194;2023-03-01T09:12:04;9.63;;;5.65;;
49396;SDS011;35615;41.410;2.194;2023-03-01T09:14:31;12.18;;;5.60;;
49396;SDS011;35615;41.410;2.194;2023-03-01T09:16:59;7.10;;;4.68;;
49396;SDS011;35615;41.410;2.194;2023-03-01T09:19:29;9.18;;;5.18;;
49396;SDS011;35615;41.410;2.194;2023-03-01T09:21:57;11.07;;;4.82;;
49396;SDS011;35615;41.410;2.194;2023-03-01T09:24:25;12.75;;;5.30;;
49396;SDS011;35615;41.410;2.194;2023-03-01T09:26:53;8.05;;;5.13;;
49396;SDS011;35615;41.410;2.194;2023-03-01T09:29:22;5.95;;;4.80;;
49396;SDS011;35615;41.410;2.194;2023-03-01T09:31:50;8.48;;;5.63;;
49396;SDS011;35615;41.410;2.194;2023-03-01T09:34:18;12.60;;;5.80;;
49396;SDS011;35615;41.410;2.194;2023-03-01T09:36:50;11.18;;;5.72;;
49396;SDS011;35615;41.410;2.194;2023-03-01T09:39:18;9.25;;;5.00;;
49396;SDS011;35615;41.410;2.194;2023-03-01T09:41:49;10.57;;;5.35;;
49396;SDS011;35615;41.410;2.194;2023-03-01T09:44:41;12.70;;;5.60;;
49396;SDS011;35615;41.410;2.194;2023-03-01T09:47:35;11.38;;;6.20;;
49396;SDS011;35615;41.410;2.194;2023-03-01T09:52:45;14.00;;;5.55;;
49396;SDS011;35615;41.410;2.194;2023-03-01T09:55:15;8.85;;;5.93;;
49396;SDS011;35615;41.410;2.194;2023-03-01T10:02:55;10.23;;;5.93;;
49396;SDS011;35615;41.410;2.194;2023-03-01T10:09:02;10.15;;;5.75;;
49396;SDS011;35615;41.410;2.194;2023-03-01T10:11:38;6.35;;;4.93;;
49396;SDS011;35615;41.410;2.194;2023-03-01T10:17:12;13.23;;;6.05;;
49396;SDS011;35615;41.410;2.194;2023-03-01T10:19:48;12.48;;;6.28;;
49396;SDS011;35615;41.410;2.194;2023-03-01T10:22:18;14.18;;;6.63;;
49396;SDS011;35615;41.410;2.194;2023-03-01T10:24:56;12.27;;;6.03;;
49396;SDS011;35615;41.410;2.194;2023-03-01T10:27:34;7.32;;;4.72;;
49396;SDS011;35615;41.410;2.194;2023-03-01T10:30:38;6.87;;;4.17;;
49396;SDS011;35615;41.410;2.194;2023-03-01T10:33:30;7.35;;;4.60;;
49396;SDS011;35615;41.410;2.194;2023-03-01T10:36:00;14.40;;;4.65;;
49396;SDS011;35615;41.410;2.194;2023-03-01T10:38:29;10.23;;;4.25;;
49396;SDS011;35615;41.410;2.194;2023-03-01T10:41:13;7.35;;;4.70;;
49396;SDS011;35615;41.410;2.194;2023-03-01T10:43:46;15.45;;;4.95;;
49396;SDS011;35615;41.410;2.194;2023-03-01T10:46:25;12.63;;;5.28;;
49396;SDS011;35615;41.410;2.194;2023-03-01T10:49:06;7.47;;;4.72;;
49396;SDS011;35615;41.410;2.194;2023-03-01T10:51:44;10.15;;;5.18;;
49396;SDS011;35615;41.410;2.194;2023-03-01T10:54:47;11.25;;;6.03;;
49396;SDS011;35615;41.410;2.194;2023-03-01T10:57:37;14.25;;;6.70;;
49396;SDS011;35615;41.410;2.194;2023-03-01T11:00:16;18.67;;;7.05;;
49396;SDS011;35615;41.410;2.194;2023-03-01T11:05:26;9.50;;;5.88;;
49396;SDS011;35615;41.410;2.194;2023-03-01T11:07:57;10.68;;;5.95;;
49396;SDS011;35615;41.410;2.194;2023-03-01T11:10:29;15.82;;;5.57;;
49396;SDS011;35615;41.410;2.194;2023-03-01T11:13:13;10.05;;;6.03;;
49396;SDS011;35615;41.410;2.194;2023-03-01T11:16:02;16.20;;;7.03;;
49396;SDS011;35615;41.410;2.194;2023-03-01T11:18:35;16.60;;;5.95;;
49396;SDS011;35615;41.410;2.194;2023-03-01T11:21:14;10.80;;;5.10;;
49396;SDS011;35615;41.410;2.194;2023-03-01T11:23:47;19.58;;;5.97;;
49396;SDS011;35615;41.410;2.194;2023-03-01T11:26:19;8.57;;;4.70;;
49396;SDS011;35615;41.410;2.194;2023-03-01T11:28:51;8.50;;;4.30;;
49396;SDS011;35615;41.410;2.194;2023-03-01T11:31:24;4.25;;;2.80;;
49396;SDS011;35615;41.410;2.194;2023-03-01T11:33:59;5.38;;;3.67;;
49396;SDS011;35615;41.410;2.194;2023-03-01T11:36:51;15.23;;;3.30;;
49396;SDS011;35615;41.410;2.194;2023-03-01T11:39:34;4.68;;;3.40;;
49396;SDS011;35615;41.410;2.194;2023-03-01T11:42:20;4.13;;;3.13;;
49396;SDS011;35615;41.410;2.194;2023-03-01T11:44:58;8.02;;;3.38;;
49396;SDS011;35615;41.410;2.194;2023-03-01T12:09:29;12.98;;;4.35;;
49396;SDS011;35615;41.410;2.194;2023-03-01T12:12:09;7.22;;;4.43;;
49396;SDS011;35615;41.410;2.194;2023-03-01T12:20:40;12.98;;;4.13;;
49396;SDS011;35615;41.410;2.194;2023-03-01T12:28:49;5.68;;;3.17;;
49396;SDS011;35615;41.410;2.194;2023-03-01T12:37:15;7.90;;;3.67;;
49396;SDS011;35615;41.410;2.194;2023-03-01T12:51:38;3.97;;;3.38;;
49396;SDS011;35615;41.410;2.194;2023-03-01T12:54:18;5.40;;;3.08;;
49396;SDS011;35615;41.410;2.194;2023-03-01T12:57:02;7.88;;;3.28;;
49396;SDS011;35615;41.410;2.194;2023-03-01T13:00:09;5.93;;;3.67;;
49396;SDS011;35615;41.410;2.194;2023-03-01T13:11:21;6.50;;;3.88;;
49396;SDS011;35615;41.410;2.194;2023-03-01T13:16:50;7.60;;;4.20;;
49396;SDS011;35615;41.410;2.194;2023-03-01T13:19:32;7.07;;;4.95;;
49396;SDS011;35615;41.410;2.194;2023-03-01T13:22:24;7.85;;;4.00;;
49396;SDS011;35615;41.410;2.194;2023-03-01T13:25:10;5.90;;;4.07;;
49396;SDS011;35615;41.410;2.194;2023-03-01T13:27:52;7.82;;;3.70;;
49396;SDS011;35615;41.410;2.194;2023-03-01T13:31:03;9.10;;;3.97;;
49396;SDS011;35615;41.410;2.194;2023-03-01T13:41:55;7.43;;;3.63;;
49396;SDS011;35615;41.410;2.194;2023-03-01T13:55:44;8.95;;;4.75;;
49396;SDS011;35615;41.410;2.194;2023-03-01T13:58:22;6.40;;;3.90;;
49396;SDS011;35615;41.410;2.194;2023-03-01T14:01:05;6.15;;;3.63;;
49396;SDS011;35615;41.410;2.194;2023-03-01T14:03:51;5.82;;;4.00;;
49396;SDS011;35615;41.410;2.194;2023-03-01T14:06:40;6.45;;;4.15;;
49396;SDS011;35615;41.410;2.194;2023-03-01T14:11:54;5.45;;;3.67;;
49396;SDS011;35615;41.410;2.194;2023-03-01T14:19:41;6.55;;;4.05;;
49396;SDS011;35615;41.410;2.194;2023-03-01T14:22:45;6.57;;;4.22;;
49396;SDS011;35615;41.410;2.194;2023-03-01T14:25:29;7.13;;;4.78;;
49396;SDS011;35615;41.410;2.194;2023-03-01T14:28:32;7.93;;;4.38;;
49396;SDS011;35615;41.410;2.194;2023-03-01T14:34:29;12.35;;;5.32;;
49396;SDS011;35615;41.410;2.194;2023-03-01T14:40:01;10.75;;;5.28;;
49396;SDS011;35615;41.410;2.194;2023-03-01T14:42:37;8.77;;;5.97;;
49396;SDS011;35615;41.410;2.194;2023-03-01T14:45:27;9.93;;;5.70;;
49396;SDS011;35615;41.410;2.194;2023-03-01T14:50:40;13.80;;;5.65;;
49396;SDS011;35615;41.410;2.194;2023-03-01T14:53:26;12.52;;;6.07;;
49396;SDS011;35615;41.410;2.194;2023-03-01T14:56:20;12.00;;;5.60;;
49396;SDS011;35615;41.410;2.194;2023-03-01T14:58:54;7.43;;;5.07;;
49396;SDS011;35615;41.410;2.194;2023-03-01T15:01:26;9.40;;;5.38;;
49396;SDS011;35615;41.410;2.194;2023-03-01T15:04:02;12.35;;;4.63;;
49396;SDS011;35615;41.410;2.194;2023-03-01T15:06:33;9.38;;;4.55;;
49396;SDS011;35615;41.410;2.194;2023-03-01T15:09:04;12.35;;;4.70;;
49396;SDS011;35615;41.410;2.194;2023-03-01T15:11:39;8.45;;;5.18;;
49396;SDS011;35615;41.410;2.194;2023-03-01T15:14:27;9.63;;;5.05;;
49396;SDS011;35615;41.410;2.194;2023-03-01T15:17:34;9.35;;;5.45;;
49396;SDS011;35615;41.410;2.194;2023-03-01T15:20:22;10.70;;;5.60;;
49396;SDS011;35615;41.410;2.194;2023-03-01T15:23:17;11.98;;;6.25;;
49396;SDS011;35615;41.410;2.194;2023-03-01T15:25:47;11.23;;;5.63;;
49396;SDS011;35615;41.410;2.194;2023-03-01T15:28:27;10.50;;;5.20;;
49396;SDS011;35615;41.410;2.194;2023-03-01T15:33:37;11.40;;;5.70;;
49396;SDS011;35615;41.410;2.194;2023-03-01T15:38:59;9.48;;;5.28;;
49396;SDS011;35615;41.410;2.194;2023-03-01T15:41:37;9.30;;;5.13;;
49396;SDS011;35615;41.410;2.194;2023-03-01T15:44:23;10.57;;;5.85;;
49396;SDS011;35615;41.410;2.194;2023-03-01T15:47:22;11.63;;;5.18;;
49396;SDS011;35615;41.410;2.194;2023-03-01T15:49:52;11.70;;;5.47;;
49396;SDS011;35615;41.410;2.194;2023-03-01T15:52:26;9.00;;;5.28;;
49396;SDS011;35615;41.410;2.194;2023-03-01T15:55:16;10.68;;;4.65;;
49396;SDS011;35615;41.410;2.194;2023-03-01T15:57:49;8.80;;;4.65;;
49396;SDS011;35615;41.410;2.194;2023-03-01T16:00:37;9.50;;;4.70;;
49396;SDS011;35615;41.410;2.194;2023-03-01T16:03:25;17.10;;;5.00;;
49396;SDS011;35615;41.410;2.194;2023-03-01T16:05:56;14.23;;;4.95;;
49396;SDS011;35615;41.410;2.194;2023-03-01T16:08:26;9.57;;;4.88;;
49396;SDS011;35615;41.410;2.194;2023-03-01T16:10:57;13.32;;;5.43;;
49396;SDS011;35615;41.410;2.194;2023-03-01T16:13:28;11.18;;;5.88;;
49396;SDS011;35615;41.410;2.194;2023-03-01T16:16:00;13.00;;;6.00;;
49396;SDS011;35615;41.410;2.194;2023-03-01T16:18:28;17.17;;;5.57;;
49396;SDS011;35615;41.410;2.194;2023-03-01T16:20:59;12.43;;;5.97;;
49396;SDS011;35615;41.410;2.194;2023-03-01T16:23:27;12.20;;;5.63;;
49396;SDS011;35615;41.410;2.194;2023-03-01T16:25:58;15.27;;;5.45;;
49396;SDS011;35615;41.410;2.194;2023-03-01T16:28:43;11.88;;;5.50;;
49396;SDS011;35615;41.410;2.194;2023-03-01T16:31:11;9.15;;;5.22;;
49396;SDS011;35615;41.410;2.194;2023-03-01T16:33:53;11.85;;;6.45;;
49396;SDS011;35615;41.410;2.194;2023-03-01T16:36:21;12.18;;;5.80;;
49396;SDS011;35615;41.410;2.194;2023-03-01T16:38:55;10.18;;;5.35;;
49396;SDS011;35615;41.410;2.194;2023-03-01T16:41:47;9.98;;;5.95;;
49396;SDS011;35615;41.410;2.194;2023-03-01T16:44:21;8.40;;;5.30;;
49396;SDS011;35615;41.410;2.194;2023-03-01T16:46:52;12.75;;;5.30;;
49396;SDS011;35615;41.410;2.194;2023-03-01T16:49:29;12.27;;;5.88;;
49396;SDS011;35615;41.410;2.194;2023-03-01T16:52:02;9.95;;;6.13;;
49396;SDS011;35615;41.410;2.194;2023-03-01T16:57:03;11.82;;;3.95;;
49396;SDS011;35615;41.410;2.194;2023-03-01T16:59:33;9.05;;;4.70;;
49396;SDS011;35615;41.410;2.194;2023-03-01T17:02:12;9.73;;;5.68;;
49396;SDS011;35615;41.410;2.194;2023-03-01T17:04:45;11.20;;;5.03;;
49396;SDS011;35615;41.410;2.194;2023-03-01T17:07:22;22.13;;;5.50;;
49396;SDS011;35615;41.410;2.194;2023-03-01T17:09:55;9.48;;;5.20;;
49396;SDS011;35615;41.410;2.194;2023-03-01T17:12:28;12.48;;;5.45;;
49396;SDS011;35615;41.410;2.194;2023-03-01T17:15:06;12.02;;;5.43;;
49396;SDS011;35615;41.410;2.194;2023-03-01T17:17:34;10.75;;;5.13;;
49396;SDS011;35615;41.410;2.194;2023-03-01T17:20:05;24.58;;;6.07;;
49396;SDS011;35615;41.410;2.194;2023-03-01T17:22:48;9.48;;;4.22;;
49396;SDS011;35615;41.410;2.194;2023-03-01T17:25:15;12.05;;;5.45;;
49396;SDS011;35615;41.410;2.194;2023-03-01T17:27:44;8.77;;;4.97;;
49396;SDS011;35615;41.410;2.194;2023-03-01T17:30:18;14.25;;;5.22;;
49396;SDS011;35615;41.410;2.194;2023-03-01T17:32:56;10.63;;;4.72;;
49396;SDS011;35615;41.410;2.194;2023-03-01T17:35:38;7.72;;;5.43;;
49396;SDS011;35615;41.410;2.194;2023-03-01T17:38:34;7.82;;;5.32;;
49396;SDS011;35615;41.410;2.194;2023-03-01T17:41:20;11.23;;;6.53;;
49396;SDS011;35615;41.410;2.194;2023-03-01T17:44:02;7.93;;;5.22;;
49396;SDS011;35615;41.410;2.194;2023-03-01T17:46:38;14.43;;;5.78;;
49396;SDS011;35615;41.410;2.194;2023-03-01T17:49:05;12.43;;;6.22;;
49396;SDS011;35615;41.410;2.194;2023-03-01T17:51:38;12.70;;;5.70;;
49396;SDS011;35615;41.410;2.194;2023-03-01T17:54:13;9.30;;;5.18;;
49396;SDS011;35615;41.410;2.194;2023-03-01T17:56:47;12.60;;;6.25;;
49396;SDS011;35615;41.410;2.194;2023-03-01T17:59:20;17.05;;;5.65;;
49396;SDS011;35615;41.410;2.194;2023-03-01T18:02:01;13.00;;;5.90;;
49396;SDS011;35615;41.410;2.194;2023-03-01T18:04:43;18.25;;;6.10;;
49396;SDS011;35615;41.410;2.194;2023-03-01T18:07:12;18.20;;;6.05;;